sensor_id;sensor_type;location;lat;lon;timestamp;pressure;altitude;pressure_sealevel;temperature
24586;BMP280;12743;52.262;6.172;2023-09-12T00:02:11;96868.13;;;20.63
24586;BMP280;12743;52.262;6.172;2023-09-12T00:04:37;96723.06;;;21.00
24586;BMP280;12743;52.262;6.172;2023-09-12T00:07:04;96938.16;;;20.80
24586;BMP280;12743;52.262;6.172;2023-09-12T00:09:30;96564.38;;;20.47
24586;BMP280;12743;52.262;6.172;2023-09-12T00:11:57;96483.94;;;20.54
24586;BMP280;12743;52.262;6.172;2023-09-12T00:14:24;96370.56;;;20.77
24586;BMP280;12743;52.262;6.172;2023-09-12T00:16:50;96386.22;;;20.86
24586;BMP280;12743;52.262;6.172;2023-09-12T00:19:19;96408.06;;;20.85
24586;BMP280;12743;52.262;6.172;2023-09-12T00:21:45;96537.44;;;20.91
24586;BMP280;12743;52.262;6.172;2023-09-12T00:24:12;96445.34;;;20.66
24586;BMP280;12743;52.262;6.172;2023-09-12T00:26:38;96414.75;;;20.72
24586;BMP280;12743;52.262;6.172;2023-09-12T00:29:05;96368.59;;;20.59
24586;BMP280;12743;52.262;6.172;2023-09-12T00:31:32;96322.75;;;20.42
24586;BMP280;12743;52.262;6.172;2023-09-12T00:33:58;96239.72;;;20.56
24586;BMP280;12743;52.262;6.172;2023-09-12T00:36:25;96353.53;;;20.86
24586;BMP280;12743;52.262;6.172;2023-09-12T00:38:52;96455.78;;;20.88
24586;BMP280;12743;52.262;6.172;2023-09-12T00:41:18;96445.91;;;20.83
24586;BMP280;12743;52.262;6.172;2023-09-12T00:43:45;96476.19;;;20.86
24586;BMP280;12743;52.262;6.172;2023-09-12T00:46:15;96467.19;;;20.59
24586;BMP280;12743;52.262;6.172;2023-09-12T00:48:44;96344.84;;;20.31
24586;BMP280;12743;52.262;6.172;2023-09-12T00:51:14;96251.34;;;20.35
24586;BMP280;12743;52.262;6.172;2023-09-12T00:53:41;96252.00;;;20.46
24586;BMP280;12743;52.262;6.172;2023-09-12T00:56:09;96413.22;;;20.77
24586;BMP280;12743;52.262;6.172;2023-09-12T00:58:36;96420.81;;;20.67
24586;BMP280;12743;52.262;6.172;2023-09-12T01:01:02;96432.56;;;20.83
24586;BMP280;12743;52.262;6.172;2023-09-12T01:03:30;96400.91;;;20.74
24586;BMP280;12743;52.262;6.172;2023-09-12T01:05:59;96407.94;;;20.71
24586;BMP280;12743;52.262;6.172;2023-09-12T01:08:26;96348.47;;;20.34
24586;BMP280;12743;52.262;6.172;2023-09-12T01:10:55;96260.06;;;20.35
24586;BMP280;12743;52.262;6.172;2023-09-12T01:13:23;96147.09;;;20.07
24586;BMP280;12743;52.262;6.172;2023-09-12T01:15:49;96089.75;;;20.24
24586;BMP280;12743;52.262;6.172;2023-09-12T01:18:16;96035.09;;;20.18
24586;BMP280;12743;52.262;6.172;2023-09-12T01:26:29;95962.97;;;20.03
24586;BMP280;12743;52.262;6.172;2023-09-12T01:28:57;95929.19;;;20.11
24586;BMP280;12743;52.262;6.172;2023-09-12T01:31:25;95933.19;;;20.17
24586;BMP280;12743;52.262;6.172;2023-09-12T01:33:56;96012.06;;;20.39
24586;BMP280;12743;52.262;6.172;2023-09-12T01:36:24;96060.97;;;20.41
24586;BMP280;12743;52.262;6.172;2023-09-12T01:38:50;96077.22;;;20.38
24586;BMP280;12743;52.262;6.172;2023-09-12T01:41:18;96103.97;;;20.27
24586;BMP280;12743;52.262;6.172;2023-09-12T01:43:46;96125.97;;;20.33
24586;BMP280;12743;52.262;6.172;2023-09-12T01:46:15;96156.09;;;20.46
24586;BMP280;12743;52.262;6.172;2023-09-12T01:48:43;96236.69;;;20.47
24586;BMP280;12743;52.262;6.172;2023-09-12T01:51:11;96289.28;;;20.46
24586;BMP280;12743;52.262;6.172;2023-09-12T01:53:39;96308.97;;;20.38
24586;BMP280;12743;52.262;6.172;2023-09-12T01:56:06;96250.47;;;20.27
24586;BMP280;12743;52.262;6.172;2023-09-12T01:58:33;96274.50;;;20.45
24586;BMP280;12743;52.262;6.172;2023-09-12T02:01:00;96341.84;;;20.46
24586;BMP280;12743;52.262;6.172;2023-09-12T02:03:27;96417.09;;;20.52
24586;BMP280;12743;52.262;6.172;2023-09-12T02:05:53;96598.03;;;20.55
24586;BMP280;12743;52.262;6.172;2023-09-12T02:08:20;96586.13;;;20.62
24586;BMP280;12743;52.262;6.172;2023-09-12T02:10:46;96536.00;;;20.55
24586;BMP280;12743;52.262;6.172;2023-09-12T02:13:13;96512.38;;;20.46
24586;BMP280;12743;52.262;6.172;2023-09-12T02:15:40;96442.97;;;20.27
24586;BMP280;12743;52.262;6.172;2023-09-12T02:18:06;96431.53;;;20.38
24586;BMP280;12743;52.262;6.172;2023-09-12T02:20:38;96499.50;;;20.44
24586;BMP280;12743;52.262;6.172;2023-09-12T02:23:05;96546.72;;;20.49
24586;BMP280;12743;52.262;6.172;2023-09-12T02:25:31;96573.84;;;20.48
24586;BMP280;12743;52.262;6.172;2023-09-12T02:27:58;96572.19;;;20.45
24586;BMP280;12743;52.262;6.172;2023-09-12T02:30:25;96558.09;;;20.50
24586;BMP280;12743;52.262;6.172;2023-09-12T02:32:51;96535.53;;;20.51
24586;BMP280;12743;52.262;6.172;2023-09-12T02:35:18;96529.63;;;20.34
24586;BMP280;12743;52.262;6.172;2023-09-12T02:37:44;96419.94;;;20.30
24586;BMP280;12743;52.262;6.172;2023-09-12T02:40:11;96402.38;;;20.16
24586;BMP280;12743;52.262;6.172;2023-09-12T02:42:38;96395.50;;;20.26
24586;BMP280;12743;52.262;6.172;2023-09-12T02:45:05;96380.53;;;20.23
24586;BMP280;12743;52.262;6.172;2023-09-12T02:47:32;96358.94;;;19.97
24586;BMP280;12743;52.262;6.172;2023-09-12T02:49:59;96328.69;;;20.00
24586;BMP280;12743;52.262;6.172;2023-09-12T02:52:25;96298.03;;;19.88
24586;BMP280;12743;52.262;6.172;2023-09-12T02:54:52;96310.66;;;19.82
24586;BMP280;12743;52.262;6.172;2023-09-12T02:57:19;96318.28;;;19.61
24586;BMP280;12743;52.262;6.172;2023-09-12T02:59:45;96316.97;;;19.78
24586;BMP280;12743;52.262;6.172;2023-09-12T03:02:12;96338.59;;;19.69
24586;BMP280;12743;52.262;6.172;2023-09-12T03:04:39;96366.00;;;19.53
24586;BMP280;12743;52.262;6.172;2023-09-12T03:07:06;96367.03;;;19.39
24586;BMP280;12743;52.262;6.172;2023-09-12T03:09:33;96336.25;;;19.49
24586;BMP280;12743;52.262;6.172;2023-09-12T03:12:03;96303.66;;;19.43
24586;BMP280;12743;52.262;6.172;2023-09-12T03:14:31;96357.03;;;19.51
24586;BMP280;12743;52.262;6.172;2023-09-12T03:16:57;96358.81;;;19.32
24586;BMP280;12743;52.262;6.172;2023-09-12T03:19:24;96327.25;;;19.17
24586;BMP280;12743;52.262;6.172;2023-09-12T03:21:51;96268.94;;;19.25
24586;BMP280;12743;52.262;6.172;2023-09-12T03:24:17;96271.06;;;19.37
24586;BMP280;12743;52.262;6.172;2023-09-12T03:26:45;96271.00;;;19.48
24586;BMP280;12743;52.262;6.172;2023-09-12T03:29:11;96295.16;;;19.50
24586;BMP280;12743;52.262;6.172;2023-09-12T03:31:38;96305.88;;;19.39
24586;BMP280;12743;52.262;6.172;2023-09-12T03:34:04;96303.22;;;19.39
24586;BMP280;12743;52.262;6.172;2023-09-12T03:36:31;96298.63;;;19.40
24586;BMP280;12743;52.262;6.172;2023-09-12T03:38:58;96324.59;;;19.17
24586;BMP280;12743;52.262;6.172;2023-09-12T03:41:24;96281.28;;;19.22
24586;BMP280;12743;52.262;6.172;2023-09-12T03:43:54;96096.09;;;19.25
24586;BMP280;12743;52.262;6.172;2023-09-12T03:46:22;96086.59;;;19.35
24586;BMP280;12743;52.262;6.172;2023-09-12T03:48:48;96131.00;;;19.16
24586;BMP280;12743;52.262;6.172;2023-09-12T03:51:15;96206.47;;;19.02
24586;BMP280;12743;52.262;6.172;2023-09-12T03:53:42;96228.28;;;18.95
24586;BMP280;12743;52.262;6.172;2023-09-12T03:56:09;96235.09;;;19.25
24586;BMP280;12743;52.262;6.172;2023-09-12T03:58:39;96298.50;;;19.05
24586;BMP280;12743;52.262;6.172;2023-09-12T04:01:06;96284.41;;;19.26
24586;BMP280;12743;52.262;6.172;2023-09-12T04:03:33;96303.56;;;19.14
24586;BMP280;12743;52.262;6.172;2023-09-12T04:06:00;96283.19;;;19.27
24586;BMP280;12743;52.262;6.172;2023-09-12T04:08:27;96293.59;;;19.25
24586;BMP280;12743;52.262;6.172;2023-09-12T04:10:53;96333.25;;;19.23
24586;BMP280;12743;52.262;6.172;2023-09-12T04:13:20;96341.94;;;19.18
24586;BMP280;12743;52.262;6.172;2023-09-12T04:15:46;96338.06;;;19.25
24586;BMP280;12743;52.262;6.172;2023-09-12T04:18:13;96352.56;;;19.29
24586;BMP280;12743;52.262;6.172;2023-09-12T04:20:40;96395.19;;;19.07
24586;BMP280;12743;52.262;6.172;2023-09-12T04:23:07;96406.81;;;18.93
24586;BMP280;12743;52.262;6.172;2023-09-12T04:25:33;96382.16;;;18.98
24586;BMP280;12743;52.262;6.172;2023-09-12T04:28:00;96381.44;;;19.03
24586;BMP280;12743;52.262;6.172;2023-09-12T04:30:27;96390.84;;;18.99
24586;BMP280;12743;52.262;6.172;2023-09-12T04:32:54;96287.94;;;18.94
24586;BMP280;12743;52.262;6.172;2023-09-12T04:35:21;96386.50;;;19.07
24586;BMP280;12743;52.262;6.172;2023-09-12T04:37:48;96484.13;;;19.06
24586;BMP280;12743;52.262;6.172;2023-09-12T04:40:15;96511.91;;;19.16
24586;BMP280;12743;52.262;6.172;2023-09-12T04:42:42;96573.28;;;19.02
24586;BMP280;12743;52.262;6.172;2023-09-12T04:45:09;96577.41;;;19.08
24586;BMP280;12743;52.262;6.172;2023-09-12T04:47:35;96538.47;;;19.27
24586;BMP280;12743;52.262;6.172;2023-09-12T04:50:03;96567.47;;;19.36
24586;BMP280;12743;52.262;6.172;2023-09-12T04:52:29;96594.81;;;19.20
24586;BMP280;12743;52.262;6.172;2023-09-12T04:54:59;96596.75;;;19.20
24586;BMP280;12743;52.262;6.172;2023-09-12T04:57:26;96590.22;;;19.43
24586;BMP280;12743;52.262;6.172;2023-09-12T04:59:57;96634.69;;;19.53
24586;BMP280;12743;52.262;6.172;2023-09-12T05:02:25;96731.69;;;19.52
24586;BMP280;12743;52.262;6.172;2023-09-12T05:04:52;96824.59;;;19.61
24586;BMP280;12743;52.262;6.172;2023-09-12T05:07:19;96836.63;;;19.46
24586;BMP280;12743;52.262;6.172;2023-09-12T05:09:45;96833.50;;;19.58
24586;BMP280;12743;52.262;6.172;2023-09-12T05:12:12;96842.19;;;19.42
24586;BMP280;12743;52.262;6.172;2023-09-12T05:14:39;96857.47;;;19.47
24586;BMP280;12743;52.262;6.172;2023-09-12T05:17:06;96902.94;;;19.44
24586;BMP280;12743;52.262;6.172;2023-09-12T05:19:32;96805.88;;;19.17
24586;BMP280;12743;52.262;6.172;2023-09-12T05:21:59;96807.84;;;19.44
24586;BMP280;12743;52.262;6.172;2023-09-12T05:24:26;96828.16;;;19.42
24586;BMP280;12743;52.262;6.172;2023-09-12T05:26:53;96816.56;;;19.34
24586;BMP280;12743;52.262;6.172;2023-09-12T05:29:19;96814.13;;;19.30
24586;BMP280;12743;52.262;6.172;2023-09-12T05:31:46;96813.63;;;19.26
24586;BMP280;12743;52.262;6.172;2023-09-12T05:34:13;96808.25;;;19.15
24586;BMP280;12743;52.262;6.172;2023-09-12T05:36:39;96822.72;;;19.03
24586;BMP280;12743;52.262;6.172;2023-09-12T05:39:06;96803.72;;;19.32
24586;BMP280;12743;52.262;6.172;2023-09-12T05:41:33;96883.06;;;19.39
24586;BMP280;12743;52.262;6.172;2023-09-12T05:43:59;96923.19;;;19.41
24586;BMP280;12743;52.262;6.172;2023-09-12T05:46:26;96931.44;;;19.49
24586;BMP280;12743;52.262;6.172;2023-09-12T05:48:53;97058.75;;;19.56
24586;BMP280;12743;52.262;6.172;2023-09-12T05:51:20;97121.00;;;19.69
24586;BMP280;12743;52.262;6.172;2023-09-12T05:53:46;97071.84;;;19.65
24586;BMP280;12743;52.262;6.172;2023-09-12T05:56:13;97041.78;;;19.53
24586;BMP280;12743;52.262;6.172;2023-09-12T05:58:40;97011.78;;;19.47
24586;BMP280;12743;52.262;6.172;2023-09-12T06:01:10;97141.97;;;19.62
24586;BMP280;12743;52.262;6.172;2023-09-12T06:03:37;97164.75;;;19.63
24586;BMP280;12743;52.262;6.172;2023-09-12T06:06:04;97129.09;;;19.55
24586;BMP280;12743;52.262;6.172;2023-09-12T06:08:31;97142.75;;;19.68
24586;BMP280;12743;52.262;6.172;2023-09-12T06:10:57;97228.63;;;19.63
24586;BMP280;12743;52.262;6.172;2023-09-12T06:13:24;97201.88;;;19.77
24586;BMP280;12743;52.262;6.172;2023-09-12T06:15:51;97152.56;;;19.88
24586;BMP280;12743;52.262;6.172;2023-09-12T06:18:17;97111.88;;;19.82
24586;BMP280;12743;52.262;6.172;2023-09-12T06:20:46;97111.59;;;19.79
24586;BMP280;12743;52.262;6.172;2023-09-12T06:23:12;97152.34;;;19.91
24586;BMP280;12743;52.262;6.172;2023-09-12T06:25:39;97129.03;;;19.80
24586;BMP280;12743;52.262;6.172;2023-09-12T06:28:08;97217.25;;;19.94
24586;BMP280;12743;52.262;6.172;2023-09-12T06:30:35;97236.16;;;20.01
24586;BMP280;12743;52.262;6.172;2023-09-12T06:33:02;97111.94;;;19.98
24586;BMP280;12743;52.262;6.172;2023-09-12T06:35:29;97016.28;;;19.84
24586;BMP280;12743;52.262;6.172;2023-09-12T06:37:55;97027.94;;;19.92
24586;BMP280;12743;52.262;6.172;2023-09-12T06:40:23;97061.09;;;19.96
24586;BMP280;12743;52.262;6.172;2023-09-12T06:42:49;97102.19;;;19.84
24586;BMP280;12743;52.262;6.172;2023-09-12T06:45:16;96975.00;;;19.51
24586;BMP280;12743;52.262;6.172;2023-09-12T06:47:43;96947.72;;;19.56
24586;BMP280;12743;52.262;6.172;2023-09-12T06:50:09;96898.09;;;19.53
24586;BMP280;12743;52.262;6.172;2023-09-12T06:52:41;96867.84;;;19.51
24586;BMP280;12743;52.262;6.172;2023-09-12T06:55:08;96929.47;;;19.38
24586;BMP280;12743;52.262;6.172;2023-09-12T06:57:34;96903.28;;;19.20
24586;BMP280;12743;52.262;6.172;2023-09-12T07:00:02;96964.13;;;19.55
24586;BMP280;12743;52.262;6.172;2023-09-12T07:02:33;96939.22;;;19.52
24586;BMP280;12743;52.262;6.172;2023-09-12T07:04:59;96828.91;;;19.53
24586;BMP280;12743;52.262;6.172;2023-09-12T07:07:26;96821.66;;;19.48
24586;BMP280;12743;52.262;6.172;2023-09-12T07:09:52;96836.66;;;19.51
24586;BMP280;12743;52.262;6.172;2023-09-12T07:12:30;96921.06;;;19.51
24586;BMP280;12743;52.262;6.172;2023-09-12T07:14:56;97005.03;;;19.57
24586;BMP280;12743;52.262;6.172;2023-09-12T07:17:23;96984.00;;;19.59
24586;BMP280;12743;52.262;6.172;2023-09-12T07:19:50;96969.72;;;19.57
24586;BMP280;12743;52.262;6.172;2023-09-12T07:22:17;96927.09;;;19.51
24586;BMP280;12743;52.262;6.172;2023-09-12T07:24:44;96979.75;;;19.90
24586;BMP280;12743;52.262;6.172;2023-09-12T07:27:10;97007.94;;;19.59
24586;BMP280;12743;52.262;6.172;2023-09-12T07:29:38;96987.34;;;19.54
24586;BMP280;12743;52.262;6.172;2023-09-12T07:32:04;96968.06;;;19.70
24586;BMP280;12743;52.262;6.172;2023-09-12T07:34:31;96936.44;;;19.89
24586;BMP280;12743;52.262;6.172;2023-09-12T07:36:57;96974.84;;;19.71
24586;BMP280;12743;52.262;6.172;2023-09-12T07:39:24;97033.75;;;19.90
24586;BMP280;12743;52.262;6.172;2023-09-12T07:41:51;97094.38;;;19.75
24586;BMP280;12743;52.262;6.172;2023-09-12T07:44:17;97099.50;;;19.84
24586;BMP280;12743;52.262;6.172;2023-09-12T07:46:44;97165.09;;;19.82
24586;BMP280;12743;52.262;6.172;2023-09-12T07:49:10;97145.47;;;19.73
24586;BMP280;12743;52.262;6.172;2023-09-12T07:51:37;97129.31;;;19.88
24586;BMP280;12743;52.262;6.172;2023-09-12T07:54:04;97079.97;;;19.93
24586;BMP280;12743;52.262;6.172;2023-09-12T07:56:30;97083.59;;;19.90
24586;BMP280;12743;52.262;6.172;2023-09-12T07:58:57;97061.84;;;19.97
24586;BMP280;12743;52.262;6.172;2023-09-12T08:01:24;97006.19;;;20.10
24586;BMP280;12743;52.262;6.172;2023-09-12T08:03:50;96956.81;;;20.03
24586;BMP280;12743;52.262;6.172;2023-09-12T08:06:17;96936.72;;;20.13
24586;BMP280;12743;52.262;6.172;2023-09-12T08:08:44;96920.72;;;20.08
24586;BMP280;12743;52.262;6.172;2023-09-12T08:11:11;96951.75;;;20.33
24586;BMP280;12743;52.262;6.172;2023-09-12T08:13:38;96937.44;;;20.19
24586;BMP280;12743;52.262;6.172;2023-09-12T08:16:05;96959.22;;;19.96
24586;BMP280;12743;52.262;6.172;2023-09-12T08:18:31;96852.47;;;20.16
24586;BMP280;12743;52.262;6.172;2023-09-12T08:20:58;96867.91;;;20.01
24586;BMP280;12743;52.262;6.172;2023-09-12T08:23:25;96884.44;;;20.38
24586;BMP280;12743;52.262;6.172;2023-09-12T08:25:51;97119.44;;;20.58
24586;BMP280;12743;52.262;6.172;2023-09-12T08:28:18;97042.41;;;20.66
24586;BMP280;12743;52.262;6.172;2023-09-12T08:30:45;96933.34;;;20.62
24586;BMP280;12743;52.262;6.172;2023-09-12T08:33:12;96973.34;;;20.46
24586;BMP280;12743;52.262;6.172;2023-09-12T08:35:39;96889.00;;;20.65
24586;BMP280;12743;52.262;6.172;2023-09-12T08:38:06;96962.13;;;20.86
24586;BMP280;12743;52.262;6.172;2023-09-12T08:40:33;97025.19;;;20.67
24586;BMP280;12743;52.262;6.172;2023-09-12T08:43:00;96969.69;;;20.54
24586;BMP280;12743;52.262;6.172;2023-09-12T08:45:26;96912.25;;;20.48
24586;BMP280;12743;52.262;6.172;2023-09-12T08:47:53;96883.19;;;20.55
24586;BMP280;12743;52.262;6.172;2023-09-12T08:50:21;96953.41;;;20.80
24586;BMP280;12743;52.262;6.172;2023-09-12T08:52:50;97007.13;;;21.39
24586;BMP280;12743;52.262;6.172;2023-09-12T08:55:33;97149.56;;;21.20
24586;BMP280;12743;52.262;6.172;2023-09-12T08:58:02;97156.84;;;21.25
24586;BMP280;12743;52.262;6.172;2023-09-12T09:00:29;97087.41;;;21.63
24586;BMP280;12743;52.262;6.172;2023-09-12T09:02:57;97080.97;;;21.88
24586;BMP280;12743;52.262;6.172;2023-09-12T09:05:24;97185.44;;;21.68
24586;BMP280;12743;52.262;6.172;2023-09-12T09:07:51;97287.16;;;21.81
24586;BMP280;12743;52.262;6.172;2023-09-12T09:10:23;97262.63;;;21.94
24586;BMP280;12743;52.262;6.172;2023-09-12T09:13:12;97281.09;;;21.87
24586;BMP280;12743;52.262;6.172;2023-09-12T09:15:39;97313.59;;;21.79
24586;BMP280;12743;52.262;6.172;2023-09-12T09:18:09;97351.75;;;21.97
24586;BMP280;12743;52.262;6.172;2023-09-12T09:20:38;97422.66;;;22.09
24586;BMP280;12743;52.262;6.172;2023-09-12T09:23:07;97380.69;;;21.98
24586;BMP280;12743;52.262;6.172;2023-09-12T09:25:42;97491.44;;;22.41
24586;BMP280;12743;52.262;6.172;2023-09-12T09:28:17;97462.03;;;22.80
24586;BMP280;12743;52.262;6.172;2023-09-12T09:30:45;97613.06;;;22.73
24586;BMP280;12743;52.262;6.172;2023-09-12T09:33:13;97489.97;;;22.95
24586;BMP280;12743;52.262;6.172;2023-09-12T09:35:45;97731.00;;;22.75
24586;BMP280;12743;52.262;6.172;2023-09-12T09:38:12;97609.38;;;22.87
24586;BMP280;12743;52.262;6.172;2023-09-12T09:40:44;97553.66;;;23.19
24586;BMP280;12743;52.262;6.172;2023-09-12T09:43:11;97890.13;;;22.85
24586;BMP280;12743;52.262;6.172;2023-09-12T09:45:45;97726.53;;;22.56
24586;BMP280;12743;52.262;6.172;2023-09-12T09:48:23;97680.16;;;22.75
24586;BMP280;12743;52.262;6.172;2023-09-12T09:50:50;97843.75;;;23.16
24586;BMP280;12743;52.262;6.172;2023-09-12T09:53:27;97854.91;;;23.09
24586;BMP280;12743;52.262;6.172;2023-09-12T09:56:11;97922.59;;;23.21
24586;BMP280;12743;52.262;6.172;2023-09-12T09:58:52;97990.19;;;23.05
24586;BMP280;12743;52.262;6.172;2023-09-12T10:01:23;97810.50;;;22.75
24586;BMP280;12743;52.262;6.172;2023-09-12T10:03:53;97827.44;;;22.50
24586;BMP280;12743;52.262;6.172;2023-09-12T10:06:22;97820.59;;;23.02
24586;BMP280;12743;52.262;6.172;2023-09-12T10:08:51;97948.63;;;22.67
24586;BMP280;12743;52.262;6.172;2023-09-12T10:11:20;97802.66;;;22.55
24586;BMP280;12743;52.262;6.172;2023-09-12T10:14:00;97999.78;;;22.80
24586;BMP280;12743;52.262;6.172;2023-09-12T10:16:30;98007.72;;;23.06
24586;BMP280;12743;52.262;6.172;2023-09-12T10:24:32;98155.63;;;23.74
24586;BMP280;12743;52.262;6.172;2023-09-12T10:27:00;98120.16;;;23.95
24586;BMP280;12743;52.262;6.172;2023-09-12T10:29:28;98242.88;;;23.69
24586;BMP280;12743;52.262;6.172;2023-09-12T10:31:55;98048.22;;;23.72
24586;BMP280;12743;52.262;6.172;2023-09-12T10:34:24;98048.34;;;24.22
24586;BMP280;12743;52.262;6.172;2023-09-12T10:36:52;98068.50;;;23.95
24586;BMP280;12743;52.262;6.172;2023-09-12T10:39:22;98082.63;;;23.37
24586;BMP280;12743;52.262;6.172;2023-09-12T10:41:51;98109.66;;;23.02
24586;BMP280;12743;52.262;6.172;2023-09-12T10:44:20;98111.16;;;23.98
24586;BMP280;12743;52.262;6.172;2023-09-12T10:46:48;98245.16;;;23.93
24586;BMP280;12743;52.262;6.172;2023-09-12T10:49:16;98250.22;;;23.80
24586;BMP280;12743;52.262;6.172;2023-09-12T10:51:44;98151.16;;;24.02
24586;BMP280;12743;52.262;6.172;2023-09-12T10:54:16;98208.63;;;23.53
24586;BMP280;12743;52.262;6.172;2023-09-12T10:57:05;98277.69;;;23.69
24586;BMP280;12743;52.262;6.172;2023-09-12T10:59:33;98334.69;;;24.06
24586;BMP280;12743;52.262;6.172;2023-09-12T11:02:32;98329.28;;;23.95
24586;BMP280;12743;52.262;6.172;2023-09-12T11:05:00;98352.66;;;23.38
24586;BMP280;12743;52.262;6.172;2023-09-12T11:12:42;98627.81;;;24.64
24586;BMP280;12743;52.262;6.172;2023-09-12T11:15:09;98475.53;;;24.22
24586;BMP280;12743;52.262;6.172;2023-09-12T11:17:37;98511.06;;;24.23
24586;BMP280;12743;52.262;6.172;2023-09-12T11:20:04;98327.78;;;24.31
24586;BMP280;12743;52.262;6.172;2023-09-12T11:22:44;98415.03;;;24.21
24586;BMP280;12743;52.262;6.172;2023-09-12T11:25:20;98434.09;;;23.97
24586;BMP280;12743;52.262;6.172;2023-09-12T11:30:22;98416.25;;;23.94
24586;BMP280;12743;52.262;6.172;2023-09-12T11:32:51;98372.34;;;24.23
24586;BMP280;12743;52.262;6.172;2023-09-12T11:35:25;98516.66;;;24.45
24586;BMP280;12743;52.262;6.172;2023-09-12T11:38:01;98536.56;;;25.00
24586;BMP280;12743;52.262;6.172;2023-09-12T11:42:58;98737.97;;;25.00
24586;BMP280;12743;52.262;6.172;2023-09-12T11:45:27;98538.81;;;25.13
24586;BMP280;12743;52.262;6.172;2023-09-12T11:47:54;98606.34;;;24.95
24586;BMP280;12743;52.262;6.172;2023-09-12T11:55:51;98882.97;;;25.72
24586;BMP280;12743;52.262;6.172;2023-09-12T11:58:18;98944.88;;;25.77
24586;BMP280;12743;52.262;6.172;2023-09-12T12:00:51;99080.63;;;25.62
24586;BMP280;12743;52.262;6.172;2023-09-12T12:03:20;99082.28;;;25.79
24586;BMP280;12743;52.262;6.172;2023-09-12T12:05:47;99248.56;;;26.01
24586;BMP280;12743;52.262;6.172;2023-09-12T12:08:16;99243.66;;;26.39
24586;BMP280;12743;52.262;6.172;2023-09-12T12:10:57;99345.53;;;26.06
24586;BMP280;12743;52.262;6.172;2023-09-12T12:13:26;99424.84;;;26.45
24586;BMP280;12743;52.262;6.172;2023-09-12T12:15:55;99487.97;;;26.59
24586;BMP280;12743;52.262;6.172;2023-09-12T12:18:22;99471.88;;;25.42
24586;BMP280;12743;52.262;6.172;2023-09-12T12:20:49;99340.53;;;24.83
24586;BMP280;12743;52.262;6.172;2023-09-12T12:23:16;99245.31;;;25.57
24586;BMP280;12743;52.262;6.172;2023-09-12T12:25:43;99305.88;;;25.87
24586;BMP280;12743;52.262;6.172;2023-09-12T12:28:09;99448.53;;;25.63
24586;BMP280;12743;52.262;6.172;2023-09-12T12:30:36;99429.88;;;25.45
24586;BMP280;12743;52.262;6.172;2023-09-12T12:33:09;99349.03;;;25.63
24586;BMP280;12743;52.262;6.172;2023-09-12T12:36:03;99273.06;;;25.33
24586;BMP280;12743;52.262;6.172;2023-09-12T12:38:36;99313.38;;;25.33
24586;BMP280;12743;52.262;6.172;2023-09-12T12:41:27;99235.16;;;25.17
24586;BMP280;12743;52.262;6.172;2023-09-12T12:44:08;99171.81;;;25.10
24586;BMP280;12743;52.262;6.172;2023-09-12T12:46:48;99266.28;;;25.23
24586;BMP280;12743;52.262;6.172;2023-09-12T12:49:15;99246.09;;;25.28
24586;BMP280;12743;52.262;6.172;2023-09-12T12:51:42;99331.31;;;24.84
24586;BMP280;12743;52.262;6.172;2023-09-12T12:54:09;99289.63;;;25.03
24586;BMP280;12743;52.262;6.172;2023-09-12T12:56:36;99271.59;;;25.03
24586;BMP280;12743;52.262;6.172;2023-09-12T12:59:05;99100.66;;;25.06
24586;BMP280;12743;52.262;6.172;2023-09-12T13:01:37;99165.88;;;25.06
24586;BMP280;12743;52.262;6.172;2023-09-12T13:04:07;99091.97;;;24.82
24586;BMP280;12743;52.262;6.172;2023-09-12T13:06:35;99167.47;;;24.84
24586;BMP280;12743;52.262;6.172;2023-09-12T13:09:05;99178.03;;;24.87
24586;BMP280;12743;52.262;6.172;2023-09-12T13:11:33;99167.19;;;24.53
24586;BMP280;12743;52.262;6.172;2023-09-12T13:14:04;98926.03;;;25.06
24586;BMP280;12743;52.262;6.172;2023-09-12T13:16:37;99181.28;;;24.77
24586;BMP280;12743;52.262;6.172;2023-09-12T13:19:06;98803.06;;;24.90
24586;BMP280;12743;52.262;6.172;2023-09-12T13:21:33;98912.22;;;25.13
24586;BMP280;12743;52.262;6.172;2023-09-12T13:24:00;99041.53;;;25.20
24586;BMP280;12743;52.262;6.172;2023-09-12T13:26:28;99166.63;;;24.92
24586;BMP280;12743;52.262;6.172;2023-09-12T13:28:55;99191.47;;;24.87
24586;BMP280;12743;52.262;6.172;2023-09-12T13:31:22;99089.09;;;25.00
24586;BMP280;12743;52.262;6.172;2023-09-12T13:33:49;99142.94;;;24.76
24586;BMP280;12743;52.262;6.172;2023-09-12T13:36:16;98933.69;;;25.13
24586;BMP280;12743;52.262;6.172;2023-09-12T13:38:42;99125.63;;;25.26
24586;BMP280;12743;52.262;6.172;2023-09-12T13:41:09;99202.75;;;25.06
24586;BMP280;12743;52.262;6.172;2023-09-12T13:43:36;99183.38;;;25.02
24586;BMP280;12743;52.262;6.172;2023-09-12T13:46:03;98974.78;;;25.19
24586;BMP280;12743;52.262;6.172;2023-09-12T13:48:30;99289.84;;;25.14
24586;BMP280;12743;52.262;6.172;2023-09-12T13:50:57;99234.41;;;25.16
24586;BMP280;12743;52.262;6.172;2023-09-12T13:53:23;99155.19;;;25.26
24586;BMP280;12743;52.262;6.172;2023-09-12T13:55:50;99184.25;;;25.08
24586;BMP280;12743;52.262;6.172;2023-09-12T13:58:16;99094.13;;;25.27
24586;BMP280;12743;52.262;6.172;2023-09-12T14:00:44;99270.38;;;25.33
24586;BMP280;12743;52.262;6.172;2023-09-12T14:03:10;99347.28;;;25.16
24586;BMP280;12743;52.262;6.172;2023-09-12T14:05:37;99215.53;;;24.96
24586;BMP280;12743;52.262;6.172;2023-09-12T14:08:06;99230.91;;;24.96
24586;BMP280;12743;52.262;6.172;2023-09-12T14:10:34;99163.28;;;24.83
24586;BMP280;12743;52.262;6.172;2023-09-12T14:13:03;99273.88;;;24.96
24586;BMP280;12743;52.262;6.172;2023-09-12T14:15:33;99171.81;;;25.10
24586;BMP280;12743;52.262;6.172;2023-09-12T14:18:01;99288.88;;;25.02
24586;BMP280;12743;52.262;6.172;2023-09-12T14:20:28;99395.31;;;25.38
24586;BMP280;12743;52.262;6.172;2023-09-12T14:22:56;99551.81;;;26.09
24586;BMP280;12743;52.262;6.172;2023-09-12T14:25:24;99569.50;;;26.59
24586;BMP280;12743;52.262;6.172;2023-09-12T14:27:53;99572.31;;;25.69
24586;BMP280;12743;52.262;6.172;2023-09-12T14:30:19;99522.56;;;25.11
24586;BMP280;12743;52.262;6.172;2023-09-12T14:32:49;99417.88;;;25.17
24586;BMP280;12743;52.262;6.172;2023-09-12T14:35:16;99354.41;;;25.19
24586;BMP280;12743;52.262;6.172;2023-09-12T14:37:42;99329.25;;;26.15
24586;BMP280;12743;52.262;6.172;2023-09-12T14:40:09;99559.78;;;26.18
24586;BMP280;12743;52.262;6.172;2023-09-12T14:42:37;99537.00;;;25.61